createdAt,value
2018-12-09T00:00:55.730Z,879.10
2018-12-09T00:01:56.096Z,892.20
2018-12-09T00:02:55.705Z,824.90
2018-12-09T00:03:55.701Z,825.20
2018-12-09T00:04:55.681Z,930.60
2018-12-09T00:05:55.687Z,873.80
2018-12-09T00:06:56.317Z,857.00
2018-12-09T00:07:55.699Z,884.10
2018-12-09T00:08:55.642Z,834.50
2018-12-09T00:09:55.650Z,862.30
2018-12-09T00:10:55.627Z,842.90
2018-12-09T00:11:55.632Z,879.30
2018-12-09T00:12:56.269Z,860.90
2018-12-09T00:13:55.595Z,915.20
2018-12-09T00:14:55.590Z,886.20
2018-12-09T00:15:55.555Z,888.10
2018-12-09T00:16:55.546Z,792.60
2018-12-09T00:17:55.544Z,887.80
2018-12-09T00:18:55.923Z,869.60
2018-12-09T00:19:55.560Z,894.10
2018-12-09T00:20:55.495Z,855.10
2018-12-09T00:21:55.481Z,840.10
2018-12-09T00:22:55.494Z,938.60
2018-12-09T00:23:55.473Z,895.70
2018-12-09T00:24:58.909Z,934.50
2018-12-09T00:25:55.564Z,939.40
2018-12-09T00:26:55.426Z,930.40
2018-12-09T00:27:55.463Z,919.40
2018-12-09T00:28:55.413Z,920.60
2018-12-09T00:29:55.380Z,936.70
2018-12-09T00:30:56.000Z,939.40
2018-12-09T00:31:55.400Z,915.70
2018-12-09T00:32:55.405Z,954.40
2018-12-09T00:33:55.351Z,997.80
2018-12-09T00:34:55.349Z,959.50
2018-12-09T00:35:57.573Z,956.30
2018-12-09T00:36:55.356Z,923.10
2018-12-09T00:37:55.298Z,948.10
2018-12-09T00:38:55.289Z,893.60
2018-12-09T00:39:55.292Z,896.70
2018-12-09T00:40:55.308Z,896.40
2018-12-09T00:41:55.703Z,987.40
2018-12-09T00:42:55.258Z,864.70
2018-12-09T00:43:55.217Z,952.50
2018-12-09T00:44:55.194Z,863.00
2018-12-09T00:45:55.183Z,876.80
2018-12-09T00:46:55.197Z,881.80
2018-12-09T00:47:55.635Z,835.30
2018-12-09T00:48:55.200Z,909.30
2018-12-09T00:49:55.162Z,822.30
2018-12-09T00:50:55.161Z,958.40
2018-12-09T00:51:55.235Z,911.70
2018-12-09T00:52:55.121Z,850.20
2018-12-09T00:53:58.561Z,889.10
2018-12-09T00:54:55.124Z,877.60
2018-12-09T00:55:55.086Z,917.30
2018-12-09T00:56:55.055Z,899.40
2018-12-09T00:57:55.067Z,877.00
2018-12-09T00:58:55.032Z,949.00
2018-12-09T00:59:57.054Z,926.40
2018-12-09T01:00:55.043Z,902.40
2018-12-09T01:01:55.026Z,920.70
2018-12-09T01:02:54.983Z,877.70
2018-12-09T01:03:54.982Z,928.30
2018-12-09T01:04:54.971Z,935.20
2018-12-09T01:05:57.378Z,938.10
2018-12-09T01:06:54.965Z,902.90
2018-12-09T01:07:54.956Z,921.40
2018-12-09T01:08:54.933Z,884.70
2018-12-09T01:09:54.927Z,898.10
2018-12-09T01:10:54.946Z,908.30
2018-12-09T01:11:56.887Z,896.60
2018-12-09T01:12:54.875Z,883.00
2018-12-09T01:13:54.889Z,957.90
2018-12-09T01:14:54.857Z,932.00
2018-12-09T01:15:54.854Z,866.20
2018-12-09T01:16:54.845Z,854.80
2018-12-09T01:17:56.701Z,893.70
2018-12-09T01:18:54.820Z,898.40
2018-12-09T01:19:54.785Z,867.50
2018-12-09T01:20:54.778Z,949.60
2018-12-09T01:21:54.788Z,860.80
2018-12-09T01:22:54.773Z,883.50
2018-12-09T01:23:56.710Z,809.60
2018-12-09T01:24:54.754Z,881.70
2018-12-09T01:25:54.767Z,828.30
2018-12-09T01:26:54.692Z,862.70
2018-12-09T01:27:54.716Z,864.10
2018-12-09T01:28:54.726Z,877.20
2018-12-09T01:29:56.545Z,903.20
2018-12-09T01:30:54.679Z,825.50
2018-12-09T01:31:54.669Z,892.90
2018-12-09T01:32:54.637Z,920.60
2018-12-09T01:33:54.670Z,877.90
2018-12-09T01:34:54.633Z,748.60
2018-12-09T01:35:56.461Z,887.80
2018-12-09T01:36:54.579Z,909.00
2018-12-09T01:37:54.589Z,907.00
2018-12-09T01:38:54.569Z,955.10
2018-12-09T01:39:54.571Z,858.90
2018-12-09T01:40:54.544Z,824.20
2018-12-09T01:41:54.877Z,900.70
2018-12-09T01:42:54.538Z,904.00
2018-12-09T01:43:54.494Z,846.80
2018-12-09T01:44:54.504Z,939.90
2018-12-09T01:45:54.486Z,906.90
2018-12-09T01:46:54.479Z,875.90
2018-12-09T01:47:56.300Z,958.30
2018-12-09T01:48:54.452Z,863.70
2018-12-09T01:49:54.444Z,879.60
2018-12-09T01:50:54.428Z,840.00
2018-12-09T01:51:54.417Z,903.90
2018-12-09T01:52:54.416Z,902.30
2018-12-09T01:53:56.248Z,887.90
2018-12-09T01:54:54.397Z,864.90
2018-12-09T01:55:54.380Z,912.80
2018-12-09T01:56:54.358Z,891.70
2018-12-09T01:57:54.402Z,885.00
2018-12-09T01:58:54.330Z,888.30
2018-12-09T01:59:54.723Z,896.30
2018-12-09T02:00:54.314Z,913.30
2018-12-09T02:01:54.305Z,852.20
2018-12-09T02:02:54.311Z,822.90
2018-12-09T02:03:54.284Z,853.00
2018-12-09T02:04:54.277Z,929.30
2018-12-09T02:05:54.657Z,887.80
2018-12-09T02:06:54.236Z,844.80
2018-12-09T02:07:54.241Z,904.60
2018-12-09T02:08:54.196Z,937.00
2018-12-09T02:09:54.204Z,924.30
2018-12-09T02:10:54.213Z,961.50
2018-12-09T02:11:56.381Z,913.70
2018-12-09T02:12:54.153Z,795.60
2018-12-09T02:13:54.160Z,860.00
2018-12-09T02:14:54.148Z,858.50
2018-12-09T02:15:54.146Z,908.50
2018-12-09T02:16:54.114Z,847.30
2018-12-09T02:17:56.080Z,892.40
2018-12-09T02:18:54.100Z,910.40
2018-12-09T02:19:54.080Z,886.70
2018-12-09T02:20:54.080Z,842.50
2018-12-09T02:21:54.126Z,833.90
2018-12-09T02:22:54.068Z,876.70
2018-12-09T02:23:55.882Z,909.20
2018-12-09T02:24:54.007Z,959.50
2018-12-09T02:25:54.011Z,904.50
2018-12-09T02:26:54.044Z,900.90
2018-12-09T02:27:54.013Z,888.60
2018-12-09T02:28:53.990Z,930.50
2018-12-09T02:29:57.496Z,883.90
2018-12-09T02:30:53.973Z,968.30
2018-12-09T02:31:53.976Z,903.60
2018-12-09T02:32:53.940Z,983.00
2018-12-09T02:33:53.949Z,916.00
2018-12-09T02:34:53.917Z,908.40
2018-12-09T02:35:55.915Z,867.20
2018-12-09T02:36:53.891Z,902.80
2018-12-09T02:37:53.886Z,983.50
2018-12-09T02:38:53.864Z,958.80
2018-12-09T02:39:53.854Z,952.40
2018-12-09T02:40:53.836Z,917.30
2018-12-09T02:41:54.282Z,965.00
2018-12-09T02:42:53.877Z,909.20
2018-12-09T02:43:53.821Z,975.10
2018-12-09T02:44:53.794Z,929.30
2018-12-09T02:45:53.785Z,948.10
2018-12-09T02:46:53.753Z,943.30
2018-12-09T02:47:56.163Z,959.80
2018-12-09T02:48:53.745Z,903.00
2018-12-09T02:49:53.739Z,915.10
2018-12-09T02:50:53.720Z,894.50
2018-12-09T02:51:53.698Z,946.90
2018-12-09T02:52:53.689Z,877.50
2018-12-09T02:53:55.600Z,840.80
2018-12-09T02:54:53.692Z,889.00
2018-12-09T02:55:53.682Z,919.20
2018-12-09T02:56:53.666Z,885.40
2018-12-09T02:57:53.635Z,935.20
2018-12-09T02:58:53.629Z,910.50
2018-12-09T02:59:55.588Z,892.90
2018-12-09T03:00:53.609Z,923.60
2018-12-09T03:01:53.588Z,937.70
2018-12-09T03:02:53.578Z,857.50
2018-12-09T03:03:53.575Z,876.70
2018-12-09T03:04:53.589Z,796.20
2018-12-09T03:05:55.453Z,909.20
2018-12-09T03:06:53.579Z,872.70
2018-12-09T03:07:53.523Z,887.20
2018-12-09T03:08:53.502Z,891.30
2018-12-09T03:09:53.482Z,846.50
2018-12-09T03:10:53.506Z,896.00
2018-12-09T03:11:54.090Z,847.00
2018-12-09T03:12:53.469Z,898.30
2018-12-09T03:13:53.475Z,871.30
2018-12-09T03:14:53.445Z,871.80
2018-12-09T03:15:53.437Z,861.40
2018-12-09T03:16:53.437Z,860.30
2018-12-09T03:17:57.019Z,901.60
2018-12-09T03:18:53.395Z,888.20
2018-12-09T03:19:53.373Z,886.10
2018-12-09T03:20:53.388Z,900.30
2018-12-09T03:21:53.399Z,882.60
2018-12-09T03:22:53.336Z,910.70
2018-12-09T03:23:54.152Z,871.20
2018-12-09T03:24:53.354Z,968.00
2018-12-09T03:25:53.316Z,861.00
2018-12-09T03:26:55.044Z,884.10
2018-12-09T03:27:53.287Z,929.80
2018-12-09T03:28:53.277Z,914.60
2018-12-09T03:29:55.170Z,963.10
2018-12-09T03:30:53.265Z,965.30
2018-12-09T03:31:53.231Z,928.50
2018-12-09T03:32:53.259Z,960.10
2018-12-09T03:33:53.218Z,974.10
2018-12-09T03:34:53.229Z,940.60
2018-12-09T03:35:55.399Z,967.10
2018-12-09T03:36:53.194Z,939.60
2018-12-09T03:37:53.156Z,911.30
2018-12-09T03:38:53.150Z,959.10
2018-12-09T03:39:53.146Z,989.10
2018-12-09T03:40:53.134Z,970.40
2018-12-09T03:41:53.624Z,966.10
2018-12-09T03:42:53.124Z,968.30
2018-12-09T03:43:53.111Z,999.90
2018-12-09T03:44:53.116Z,988.90
2018-12-09T03:45:53.049Z,992.10
2018-12-09T03:46:53.064Z,855.30
2018-12-09T03:47:55.077Z,974.40
2018-12-09T03:48:53.052Z,983.10
2018-12-09T03:49:53.034Z,978.10
2018-12-09T03:50:52.992Z,988.40
2018-12-09T03:51:53.031Z,955.70
2018-12-09T03:52:53.004Z,953.30
2018-12-09T03:53:55.066Z,970.40
2018-12-09T03:54:53.004Z,924.70
2018-12-09T03:55:53.007Z,999.90
2018-12-09T03:56:52.935Z,918.70
2018-12-09T03:57:52.917Z,970.70
2018-12-09T03:58:52.912Z,999.90
2018-12-09T03:59:53.658Z,925.90
2018-12-09T04:00:52.917Z,938.50
2018-12-09T04:01:52.909Z,936.90
2018-12-09T04:02:52.868Z,941.90
2018-12-09T04:03:52.842Z,930.50
2018-12-09T04:04:52.844Z,897.70
2018-12-09T04:05:53.523Z,868.90
2018-12-09T04:06:52.832Z,913.70
2018-12-09T04:07:52.793Z,883.70
2018-12-09T04:08:52.776Z,911.60
2018-12-09T04:09:52.771Z,860.40
2018-12-09T04:10:52.768Z,906.20
2018-12-09T04:11:53.137Z,858.20
2018-12-09T04:12:52.745Z,837.00
2018-12-09T04:13:52.750Z,902.40
2018-12-09T04:14:52.741Z,896.10
2018-12-09T04:15:52.710Z,862.80
2018-12-09T04:16:52.961Z,912.80
2018-12-09T04:17:52.700Z,817.30
2018-12-09T04:18:52.667Z,889.00
2018-12-09T04:19:52.638Z,818.20
2018-12-09T04:20:52.654Z,775.80
2018-12-09T04:21:54.377Z,795.70
2018-12-09T04:22:52.687Z,726.10
2018-12-09T04:23:52.627Z,751.30
2018-12-09T04:24:52.627Z,796.50
2018-12-09T04:25:52.642Z,631.00
2018-12-09T04:26:52.591Z,752.20
2018-12-09T04:27:54.504Z,792.30
2018-12-09T04:28:52.568Z,767.10
2018-12-09T04:29:52.552Z,816.00
2018-12-09T04:30:52.529Z,780.60
2018-12-09T04:31:52.527Z,847.40
2018-12-09T04:32:52.513Z,794.10
2018-12-09T04:33:52.994Z,753.50
2018-12-09T04:34:52.483Z,774.20
2018-12-09T04:35:52.467Z,801.00
2018-12-09T04:36:52.443Z,820.70
2018-12-09T04:37:52.484Z,778.60
2018-12-09T04:38:54.507Z,813.90
2018-12-09T04:39:52.419Z,797.50
2018-12-09T04:40:52.382Z,782.10
2018-12-09T04:41:52.393Z,745.20
2018-12-09T04:42:52.384Z,853.30
2018-12-09T04:43:52.375Z,850.40
2018-12-09T04:44:54.619Z,838.50
2018-12-09T04:45:52.343Z,818.30
2018-12-09T04:46:52.375Z,814.90
2018-12-09T04:47:52.307Z,774.30
2018-12-09T04:48:52.291Z,815.40
2018-12-09T04:49:52.275Z,795.70
2018-12-09T04:50:52.636Z,890.30
2018-12-09T04:51:52.280Z,820.90
2018-12-09T04:52:52.279Z,856.90
2018-12-09T04:53:52.243Z,817.90
2018-12-09T04:54:52.239Z,793.90
2018-12-09T04:55:52.216Z,854.10
2018-12-09T04:56:52.703Z,831.40
2018-12-09T04:57:52.210Z,859.00
2018-12-09T04:58:52.174Z,904.10
2018-12-09T04:59:52.181Z,857.90
2018-12-09T05:00:52.132Z,840.10
2018-12-09T05:01:52.158Z,821.20
2018-12-09T05:02:54.274Z,902.60
2018-12-09T05:03:52.136Z,931.50
2018-12-09T05:04:52.095Z,900.80
2018-12-09T05:05:52.109Z,909.70
2018-12-09T05:06:52.092Z,889.30
2018-12-09T05:07:52.062Z,959.90
2018-12-09T05:08:54.196Z,925.70
2018-12-09T05:09:52.063Z,868.40
2018-12-09T05:10:52.035Z,923.10
2018-12-09T05:11:52.019Z,945.30
2018-12-09T05:12:52.009Z,938.30
2018-12-09T05:13:52.011Z,939.00
2018-12-09T05:14:55.656Z,886.60
2018-12-09T05:15:52.010Z,878.90
2018-12-09T05:16:51.989Z,939.20
2018-12-09T05:17:51.949Z,938.20
2018-12-09T05:18:51.928Z,923.90
2018-12-09T05:19:51.940Z,941.00
2018-12-09T05:20:55.416Z,935.10
2018-12-09T05:21:51.912Z,913.10
2018-12-09T05:22:51.899Z,921.10
2018-12-09T05:23:51.896Z,908.40
2018-12-09T05:24:51.866Z,886.90
2018-12-09T05:25:51.899Z,957.60
2018-12-09T05:26:52.239Z,957.80
2018-12-09T05:27:51.830Z,943.30
2018-12-09T05:28:51.814Z,913.30
2018-12-09T05:29:51.780Z,945.90
2018-12-09T05:30:51.836Z,933.60
2018-12-09T05:31:52.102Z,998.60
2018-12-09T05:32:51.781Z,893.80
2018-12-09T05:33:51.775Z,954.50
2018-12-09T05:34:51.730Z,918.80
2018-12-09T05:35:51.737Z,952.40
2018-12-09T05:36:54.067Z,957.40
2018-12-09T05:37:51.694Z,965.00
2018-12-09T05:38:51.710Z,999.90
2018-12-09T05:39:51.677Z,905.60
2018-12-09T05:40:51.713Z,948.50
2018-12-09T05:41:51.656Z,967.70
2018-12-09T05:42:55.343Z,928.70
2018-12-09T05:43:51.675Z,999.90
2018-12-09T05:44:51.611Z,954.00
2018-12-09T05:45:51.602Z,948.40
2018-12-09T05:46:51.703Z,975.80
2018-12-09T05:47:51.565Z,963.90
2018-12-09T05:48:51.664Z,946.60
2018-12-09T05:49:51.539Z,887.20
2018-12-09T05:50:51.547Z,959.50
2018-12-09T05:51:52.121Z,951.10
2018-12-09T05:52:51.524Z,926.10
2018-12-09T05:53:51.503Z,973.10
2018-12-09T05:54:51.466Z,933.30
2018-12-09T05:55:51.471Z,946.40
2018-12-09T05:56:54.956Z,938.80
2018-12-09T05:57:51.444Z,960.90
2018-12-09T05:58:51.448Z,937.60
2018-12-09T05:59:51.429Z,973.40
2018-12-09T06:00:51.429Z,936.70
2018-12-09T06:01:51.412Z,961.00
2018-12-09T06:02:51.992Z,999.90
2018-12-09T06:03:51.421Z,963.00
2018-12-09T06:04:51.369Z,954.50
2018-12-09T06:05:51.356Z,986.60
2018-12-09T06:06:51.346Z,905.70
2018-12-09T06:07:51.317Z,954.20
2018-12-09T06:08:53.224Z,955.80
2018-12-09T06:09:51.283Z,951.90
2018-12-09T06:10:51.271Z,960.80
2018-12-09T06:11:51.281Z,951.50
2018-12-09T06:12:51.275Z,974.40
2018-12-09T06:13:51.265Z,967.90
2018-12-09T06:14:53.252Z,921.00
2018-12-09T06:15:51.223Z,963.80
2018-12-09T06:16:51.215Z,909.20
2018-12-09T06:17:51.214Z,890.30
2018-12-09T06:18:51.175Z,915.20
2018-12-09T06:19:51.190Z,942.30
2018-12-09T06:20:53.056Z,926.60
2018-12-09T06:21:51.168Z,934.80
2018-12-09T06:22:51.146Z,973.90
2018-12-09T06:23:51.133Z,958.70
2018-12-09T06:24:51.122Z,968.80
2018-12-09T06:25:51.100Z,922.00
2018-12-09T06:26:53.055Z,931.60
2018-12-09T06:27:51.060Z,974.20
2018-12-09T06:28:51.066Z,954.60
2018-12-09T06:29:51.066Z,970.40
2018-12-09T06:30:51.034Z,991.10
2018-12-09T06:31:51.019Z,995.10
2018-12-09T06:32:51.421Z,999.90
2018-12-09T06:33:50.993Z,971.50
2018-12-09T06:34:50.998Z,999.90
2018-12-09T06:35:50.994Z,903.50
2018-12-09T06:36:50.955Z,986.00
2018-12-09T06:37:50.947Z,928.90
2018-12-09T06:38:52.847Z,975.70
2018-12-09T06:39:50.935Z,964.60
2018-12-09T06:40:50.920Z,999.90
2018-12-09T06:41:50.883Z,983.00
2018-12-09T06:42:50.879Z,978.20
2018-12-09T06:43:50.924Z,977.50
2018-12-09T06:44:53.328Z,937.10
2018-12-09T06:45:50.873Z,999.90
2018-12-09T06:46:50.861Z,999.90
2018-12-09T06:47:50.863Z,984.60
2018-12-09T06:48:50.823Z,976.10
2018-12-09T06:49:50.811Z,989.50
2018-12-09T06:50:53.204Z,972.60
2018-12-09T06:51:50.778Z,999.90
2018-12-09T06:52:50.784Z,999.90
2018-12-09T06:53:50.742Z,999.90
2018-12-09T06:54:50.769Z,968.60
2018-12-09T06:55:50.733Z,999.90
2018-12-09T06:56:52.546Z,999.90
2018-12-09T06:57:50.712Z,976.90
2018-12-09T06:58:50.690Z,979.40
2018-12-09T06:59:50.725Z,985.00
2018-12-09T07:00:50.688Z,994.00
2018-12-09T07:01:50.640Z,999.90
2018-12-09T07:02:51.109Z,999.90
2018-12-09T07:03:50.631Z,999.90
2018-12-09T07:04:50.620Z,954.80
2018-12-09T07:05:50.591Z,946.80
2018-12-09T07:06:50.618Z,999.90
2018-12-09T07:07:50.943Z,889.80
2018-12-09T07:08:50.581Z,958.80
2018-12-09T07:09:50.557Z,953.20
2018-12-09T07:10:50.555Z,905.00
2018-12-09T07:11:50.527Z,984.50
2018-12-09T07:12:50.619Z,999.90
2018-12-09T07:13:50.495Z,891.00
2018-12-09T07:14:50.467Z,967.00
2018-12-09T07:15:50.497Z,984.00
2018-12-09T07:16:50.507Z,999.90
2018-12-09T07:17:51.039Z,928.30
2018-12-09T07:18:50.465Z,970.70
2018-12-09T07:19:50.402Z,992.00
2018-12-09T07:20:50.458Z,907.70
2018-12-09T07:21:50.394Z,959.00
2018-12-09T07:22:50.388Z,926.40
2018-12-09T07:23:53.742Z,929.00
2018-12-09T07:24:50.379Z,949.40
2018-12-09T07:25:50.387Z,979.20
2018-12-09T07:26:50.340Z,967.50
2018-12-09T07:27:50.318Z,972.60
2018-12-09T07:28:50.329Z,999.90
2018-12-09T07:29:50.642Z,966.20
2018-12-09T07:30:50.298Z,983.40
2018-12-09T07:31:50.329Z,979.30
2018-12-09T07:32:50.258Z,893.60
2018-12-09T07:33:50.337Z,960.90
2018-12-09T07:34:50.252Z,947.20
2018-12-09T07:35:52.209Z,956.10
2018-12-09T07:36:50.217Z,936.50
2018-12-09T07:37:50.183Z,952.80
2018-12-09T07:38:50.200Z,953.30
2018-12-09T07:39:50.197Z,925.90
2018-12-09T07:40:50.164Z,953.00
2018-12-09T07:41:53.538Z,890.10
2018-12-09T07:42:50.142Z,915.00
2018-12-09T07:43:50.140Z,966.00
2018-12-09T07:44:50.145Z,926.40
2018-12-09T07:45:50.094Z,966.10
2018-12-09T07:46:50.103Z,932.30
2018-12-09T07:47:53.572Z,912.10
2018-12-09T07:48:50.076Z,922.90
2018-12-09T07:49:50.038Z,933.20
2018-12-09T07:50:50.050Z,986.30
2018-12-09T07:51:50.032Z,976.30
2018-12-09T07:52:50.018Z,949.10
2018-12-09T07:53:53.435Z,929.50
2018-12-09T07:54:49.978Z,908.60
2018-12-09T07:55:50.006Z,935.40
2018-12-09T07:56:49.950Z,909.90
2018-12-09T07:57:49.977Z,932.50
2018-12-09T07:58:49.940Z,999.90
2018-12-09T07:59:50.525Z,953.60
2018-12-09T08:00:49.924Z,980.40
2018-12-09T08:01:49.886Z,949.90
2018-12-09T08:02:49.872Z,971.00
2018-12-09T08:03:49.917Z,936.20
2018-12-09T08:04:49.849Z,989.70
2018-12-09T08:05:51.783Z,951.90
2018-12-09T08:06:49.834Z,906.50
2018-12-09T08:07:49.823Z,911.30
2018-12-09T08:08:49.843Z,900.90
2018-12-09T08:09:49.792Z,924.20
2018-12-09T08:10:49.802Z,961.60
2018-12-09T08:11:50.213Z,958.20
2018-12-09T08:12:49.764Z,909.00
2018-12-09T08:13:49.729Z,999.90
2018-12-09T08:14:49.750Z,990.90
2018-12-09T08:15:49.744Z,908.90
2018-12-09T08:16:51.654Z,944.30
2018-12-09T08:17:49.709Z,911.00
2018-12-09T08:18:49.679Z,914.90
2018-12-09T08:19:49.670Z,952.80
2018-12-09T08:20:49.662Z,886.70
2018-12-09T08:21:49.631Z,925.20
2018-12-09T08:22:51.538Z,870.00
2018-12-09T08:23:49.663Z,950.90
2018-12-09T08:24:49.607Z,799.50
2018-12-09T08:25:49.583Z,904.60
2018-12-09T08:26:49.575Z,914.90
2018-12-09T08:27:49.574Z,922.40
2018-12-09T08:28:51.591Z,928.50
2018-12-09T08:29:49.557Z,880.10
2018-12-09T08:30:49.535Z,899.40
2018-12-09T08:31:49.505Z,897.10
2018-12-09T08:32:49.505Z,881.10
2018-12-09T08:33:49.489Z,881.00
2018-12-09T08:34:51.312Z,910.70
2018-12-09T08:35:49.454Z,823.60
2018-12-09T08:36:49.477Z,928.70
2018-12-09T08:37:49.483Z,876.60
2018-12-09T08:38:49.438Z,906.10
2018-12-09T08:39:49.396Z,920.40
2018-12-09T08:40:49.859Z,956.00
2018-12-09T08:41:49.380Z,875.20
2018-12-09T08:42:49.390Z,792.80
2018-12-09T08:43:49.363Z,888.50
2018-12-09T08:44:49.403Z,882.50
2018-12-09T08:45:49.347Z,751.20
2018-12-09T08:46:51.244Z,912.00
2018-12-09T08:47:49.322Z,897.30
2018-12-09T08:48:49.317Z,912.50
2018-12-09T08:49:49.316Z,898.20
2018-12-09T08:50:49.341Z,898.90
2018-12-09T08:51:49.275Z,867.90
2018-12-09T08:52:49.584Z,888.50
2018-12-09T08:53:49.261Z,930.60
2018-12-09T08:54:49.225Z,931.00
2018-12-09T08:55:49.235Z,876.80
2018-12-09T08:56:49.232Z,880.70
2018-12-09T08:57:49.201Z,866.50
2018-12-09T08:58:51.078Z,891.00
2018-12-09T08:59:49.172Z,844.10
2018-12-09T09:00:49.166Z,767.60
2018-12-09T09:01:49.179Z,839.80
2018-12-09T09:02:49.138Z,775.60
2018-12-09T09:03:49.127Z,705.00
2018-12-09T09:04:50.963Z,846.10
2018-12-09T09:05:49.104Z,886.20
2018-12-09T09:06:49.104Z,857.20
2018-12-09T09:07:49.077Z,770.60
2018-12-09T09:08:49.053Z,831.70
2018-12-09T09:09:49.017Z,745.80
2018-12-09T09:10:50.969Z,817.00
2018-12-09T09:11:48.988Z,838.40
2018-12-09T09:12:48.976Z,785.60
2018-12-09T09:13:48.988Z,836.70
2018-12-09T09:14:48.968Z,808.20
2018-12-09T09:15:48.959Z,808.00
2018-12-09T09:16:50.894Z,854.40
2018-12-09T09:17:48.913Z,772.10
2018-12-09T09:18:48.905Z,846.00
2018-12-09T09:19:48.963Z,776.10
2018-12-09T09:20:48.884Z,798.30
2018-12-09T09:21:48.883Z,829.20
2018-12-09T09:22:50.723Z,823.60
2018-12-09T09:23:48.863Z,784.30
2018-12-09T09:24:48.831Z,817.70
2018-12-09T09:25:48.853Z,876.30
2018-12-09T09:26:48.820Z,835.00
2018-12-09T09:27:48.798Z,683.60
2018-12-09T09:28:49.268Z,816.90
2018-12-09T09:29:48.796Z,827.00
2018-12-09T09:30:48.815Z,772.90
2018-12-09T09:31:48.773Z,815.30
2018-12-09T09:32:48.760Z,767.10
2018-12-09T09:33:48.745Z,803.50
2018-12-09T09:34:50.624Z,778.00
2018-12-09T09:35:48.750Z,871.40
2018-12-09T09:36:48.710Z,753.80
2018-12-09T09:37:48.682Z,767.20
2018-12-09T09:38:48.696Z,813.10
2018-12-09T09:39:48.652Z,730.70
2018-12-09T09:40:50.478Z,799.90
2018-12-09T09:41:48.613Z,859.00
2018-12-09T09:42:48.634Z,742.20
2018-12-09T09:43:48.605Z,842.80
2018-12-09T09:44:48.584Z,705.00
2018-12-09T09:45:48.596Z,661.50
2018-12-09T09:46:48.924Z,710.10
2018-12-09T09:47:48.569Z,707.40
2018-12-09T09:48:48.557Z,657.20
2018-12-09T09:49:48.534Z,833.00
2018-12-09T09:50:48.536Z,695.10
2018-12-09T09:51:48.525Z,713.00
2018-12-09T09:52:48.848Z,737.70
2018-12-09T09:53:48.484Z,701.90
2018-12-09T09:54:48.466Z,762.50
2018-12-09T09:55:48.469Z,670.00
2018-12-09T09:56:48.453Z,750.20
2018-12-09T09:57:48.448Z,666.50
2018-12-09T09:58:50.292Z,635.10
2018-12-09T09:59:48.429Z,596.90
2018-12-09T10:00:48.429Z,660.70
2018-12-09T10:01:48.399Z,480.40
2018-12-09T10:02:48.370Z,590.80
2018-12-09T10:03:48.497Z,590.70
2018-12-09T10:04:48.950Z,556.70
2018-12-09T10:05:48.339Z,652.00
2018-12-09T10:06:48.324Z,610.60
2018-12-09T10:07:48.296Z,562.60
2018-12-09T10:08:48.307Z,572.60
2018-12-09T10:09:48.293Z,548.40
2018-12-09T10:10:51.924Z,531.30
2018-12-09T10:11:48.278Z,496.30
2018-12-09T10:12:48.264Z,538.90
2018-12-09T10:13:48.238Z,432.20
2018-12-09T10:14:48.230Z,412.10
2018-12-09T10:15:48.234Z,344.50
2018-12-09T10:16:48.672Z,464.40
2018-12-09T10:17:48.201Z,432.40
2018-12-09T10:18:48.223Z,406.50
2018-12-09T10:19:48.166Z,442.70
2018-12-09T10:20:48.144Z,444.30
2018-12-09T10:21:48.124Z,491.80
2018-12-09T10:22:50.080Z,490.90
2018-12-09T10:23:48.107Z,490.40
2018-12-09T10:24:48.105Z,543.30
2018-12-09T10:25:48.105Z,459.30
2018-12-09T10:26:48.092Z,532.90
2018-12-09T10:27:48.081Z,446.50
2018-12-09T10:28:48.342Z,491.90
2018-12-09T10:29:48.103Z,352.80
2018-12-09T10:30:48.037Z,423.80
2018-12-09T10:31:48.039Z,367.00
2018-12-09T10:32:48.014Z,482.50
2018-12-09T10:33:51.370Z,459.50
2018-12-09T10:34:47.992Z,406.20
2018-12-09T10:35:47.969Z,427.60
2018-12-09T10:36:48.012Z,312.80
2018-12-09T10:37:47.958Z,356.70
2018-12-09T10:38:47.959Z,518.20
2018-12-09T10:39:49.882Z,433.20
2018-12-09T10:40:47.942Z,470.80
2018-12-09T10:41:47.888Z,445.70
2018-12-09T10:42:47.903Z,439.20
2018-12-09T10:43:47.867Z,441.80
2018-12-09T10:44:47.887Z,439.20
2018-12-09T10:45:49.856Z,438.90
2018-12-09T10:46:47.839Z,446.30
2018-12-09T10:47:47.843Z,282.30
2018-12-09T10:48:47.815Z,346.30
2018-12-09T10:49:47.822Z,356.80
2018-12-09T10:50:47.793Z,308.30
2018-12-09T10:51:48.207Z,342.80
2018-12-09T10:52:47.787Z,362.30
2018-12-09T10:53:47.816Z,380.60
2018-12-09T10:54:47.742Z,365.60
2018-12-09T10:55:47.743Z,395.00
2018-12-09T10:56:47.753Z,403.70
2018-12-09T10:57:49.628Z,330.60
2018-12-09T10:58:47.725Z,272.40
2018-12-09T10:59:47.721Z,306.90
2018-12-09T11:00:47.721Z,270.80
2018-12-09T11:01:47.665Z,300.00
2018-12-09T11:02:47.670Z,347.20
2018-12-09T11:03:48.109Z,317.10
2018-12-09T11:04:47.653Z,239.80
2018-12-09T11:05:47.649Z,236.40
2018-12-09T11:06:47.619Z,302.40
2018-12-09T11:07:47.664Z,278.50
2018-12-09T11:08:47.616Z,150.90
2018-12-09T11:09:49.448Z,202.80
2018-12-09T11:10:47.588Z,182.00
2018-12-09T11:11:47.588Z,229.90
2018-12-09T11:12:47.611Z,149.90
2018-12-09T11:13:47.548Z,144.40
2018-12-09T11:14:47.556Z,176.30
2018-12-09T11:15:49.370Z,144.90
2018-12-09T11:16:47.568Z,120.50
2018-12-09T11:17:47.505Z,130.80
2018-12-09T11:18:47.507Z,160.20
2018-12-09T11:19:47.486Z,120.00
2018-12-09T11:20:47.490Z,102.70
2018-12-09T11:21:50.823Z,80.40
2018-12-09T11:22:47.500Z,73.60
2018-12-09T11:23:47.436Z,59.40
2018-12-09T11:24:47.456Z,58.40
2018-12-09T11:25:47.430Z,45.50
2018-12-09T11:26:47.398Z,41.90
2018-12-09T11:27:47.927Z,43.70
2018-12-09T11:28:47.394Z,44.10
2018-12-09T11:29:47.375Z,43.50
2018-12-09T11:30:47.375Z,39.90
2018-12-09T11:31:47.385Z,39.00
2018-12-09T11:32:47.364Z,43.50
2018-12-09T11:33:49.314Z,32.10
2018-12-09T11:34:47.358Z,24.90
2018-12-09T11:35:47.333Z,23.30
2018-12-09T11:36:47.321Z,19.20
2018-12-09T11:37:47.323Z,12.40
2018-12-09T11:38:47.298Z,6.70
2018-12-09T11:39:49.180Z,7.80
2018-12-09T11:40:47.296Z,8.80
2018-12-09T11:41:47.275Z,7.20
2018-12-09T11:42:47.280Z,9.30
2018-12-09T11:43:47.258Z,7.60
2018-12-09T11:44:47.262Z,7.80
2018-12-09T11:45:50.682Z,4.30
2018-12-09T11:46:47.237Z,7.30
2018-12-09T11:47:47.210Z,3.80
2018-12-09T11:48:47.218Z,7.10
2018-12-09T11:49:47.237Z,5.30
2018-12-09T11:50:47.224Z,5.00
2018-12-09T11:51:47.654Z,4.30
2018-12-09T11:52:47.211Z,4.60
2018-12-09T11:53:47.192Z,3.80
2018-12-09T11:54:47.143Z,4.40
2018-12-09T11:55:47.172Z,3.30
2018-12-09T11:56:47.159Z,2.90
2018-12-09T11:57:47.611Z,1.90
2018-12-09T11:58:47.142Z,2.00
2018-12-09T11:59:47.149Z,2.40
2018-12-09T12:00:47.142Z,1.70
2018-12-09T12:01:47.112Z,1.80
2018-12-09T12:02:47.142Z,1.60
2018-12-09T12:03:47.549Z,1.60
2018-12-09T12:04:47.099Z,1.70
2018-12-09T12:05:47.106Z,1.90
2018-12-09T12:06:47.079Z,1.50
2018-12-09T12:07:47.109Z,1.70
2018-12-09T12:08:47.097Z,1.50
2018-12-09T12:09:48.961Z,1.60
2018-12-09T12:10:47.068Z,1.50
2018-12-09T12:11:47.025Z,1.50
2018-12-09T12:12:47.033Z,1.90
2018-12-09T12:13:47.047Z,1.60
2018-12-09T12:14:47.018Z,2.10
2018-12-09T12:15:47.134Z,1.90
2018-12-09T12:16:47.017Z,1.70
2018-12-09T12:17:47.007Z,1.90
2018-12-09T12:18:47.022Z,1.80
2018-12-09T12:19:47.449Z,1.70
2018-12-09T12:20:46.968Z,1.80
2018-12-09T12:21:46.985Z,2.10
2018-12-09T12:22:46.981Z,2.00
2018-12-09T12:23:46.988Z,2.10
2018-12-09T12:24:47.059Z,1.90
2018-12-09T12:25:46.974Z,1.70
2018-12-09T12:26:46.984Z,1.70
2018-12-09T12:27:46.935Z,1.70
2018-12-09T12:28:46.996Z,1.80
2018-12-09T12:29:50.326Z,1.70
2018-12-09T12:30:46.913Z,1.70
2018-12-09T12:31:46.931Z,1.80
2018-12-09T12:32:46.912Z,1.70